sensor_id;sensor_type;location;lat;lon;timestamp;temperature;humidity
16247;DHT22;8231;50.866;7.944;2023-04-29T00:02:11;12.50;99.90
16247;DHT22;8231;50.866;7.944;2023-04-29T00:04:39;12.60;99.90
16247;DHT22;8231;50.866;7.944;2023-04-29T00:07:08;12.60;99.90
16247;DHT22;8231;50.866;7.944;2023-04-29T00:09:36;12.50;99.90
16247;DHT22;8231;50.866;7.944;2023-04-29T00:12:04;12.50;99.90
16247;DHT22;8231;50.866;7.944;2023-04-29T00:14:35;12.40;99.90
16247;DHT22;8231;50.866;7.944;2023-04-29T00:17:04;12.40;99.90
16247;DHT22;8231;50.866;7.944;2023-04-29T00:19:32;12.40;99.90
16247;DHT22;8231;50.866;7.944;2023-04-29T00:22:00;12.50;99.90
16247;DHT22;8231;50.866;7.944;2023-04-29T00:24:29;12.50;99.90
16247;DHT22;8231;50.866;7.944;2023-04-29T00:26:57;12.50;99.90
16247;DHT22;8231;50.866;7.944;2023-04-29T00:29:25;12.80;99.90
16247;DHT22;8231;50.866;7.944;2023-04-29T00:31:55;12.50;99.90
16247;DHT22;8231;50.866;7.944;2023-04-29T00:34:23;12.40;99.90
16247;DHT22;8231;50.866;7.944;2023-04-29T00:36:51;12.40;99.90
16247;DHT22;8231;50.866;7.944;2023-04-29T00:39:21;12.40;99.90
16247;DHT22;8231;50.866;7.944;2023-04-29T00:41:49;12.30;99.90
16247;DHT22;8231;50.866;7.944;2023-04-29T00:44:17;12.50;99.90
16247;DHT22;8231;50.866;7.944;2023-04-29T00:46:45;12.40;99.90
16247;DHT22;8231;50.866;7.944;2023-04-29T00:49:15;12.50;99.90
16247;DHT22;8231;50.866;7.944;2023-04-29T00:51:44;12.30;99.90
16247;DHT22;8231;50.866;7.944;2023-04-29T00:54:12;12.30;99.90
16247;DHT22;8231;50.866;7.944;2023-04-29T00:56:42;12.30;99.90
16247;DHT22;8231;50.866;7.944;2023-04-29T00:59:12;12.30;99.90
16247;DHT22;8231;50.866;7.944;2023-04-29T01:01:41;12.30;99.90
16247;DHT22;8231;50.866;7.944;2023-04-29T01:04:11;12.30;99.90
16247;DHT22;8231;50.866;7.944;2023-04-29T01:06:48;12.30;99.90
16247;DHT22;8231;50.866;7.944;2023-04-29T01:09:32;12.30;99.90
16247;DHT22;8231;50.866;7.944;2023-04-29T01:12:23;12.20;99.90
16247;DHT22;8231;50.866;7.944;2023-04-29T01:15:03;12.20;99.90
16247;DHT22;8231;50.866;7.944;2023-04-29T01:17:37;12.20;99.90
16247;DHT22;8231;50.866;7.944;2023-04-29T01:20:08;12.00;99.90
16247;DHT22;8231;50.866;7.944;2023-04-29T01:22:39;11.90;99.90
16247;DHT22;8231;50.866;7.944;2023-04-29T01:25:09;11.70;99.90
16247;DHT22;8231;50.866;7.944;2023-04-29T01:28:05;11.80;99.90
16247;DHT22;8231;50.866;7.944;2023-04-29T01:30:44;11.60;99.90
16247;DHT22;8231;50.866;7.944;2023-04-29T01:33:20;11.60;99.90
16247;DHT22;8231;50.866;7.944;2023-04-29T01:36:00;11.50;99.90
16247;DHT22;8231;50.866;7.944;2023-04-29T01:38:36;11.50;99.90
16247;DHT22;8231;50.866;7.944;2023-04-29T01:41:14;11.50;99.90
16247;DHT22;8231;50.866;7.944;2023-04-29T01:43:50;11.40;99.90
16247;DHT22;8231;50.866;7.944;2023-04-29T01:46:22;11.40;99.90
16247;DHT22;8231;50.866;7.944;2023-04-29T01:48:53;12.10;99.90
16247;DHT22;8231;50.866;7.944;2023-04-29T01:51:22;11.30;99.90
16247;DHT22;8231;50.866;7.944;2023-04-29T01:53:51;11.30;99.90
16247;DHT22;8231;50.866;7.944;2023-04-29T01:56:20;11.30;99.90
16247;DHT22;8231;50.866;7.944;2023-04-29T01:59:00;11.20;99.90
16247;DHT22;8231;50.866;7.944;2023-04-29T02:01:44;11.20;99.90
16247;DHT22;8231;50.866;7.944;2023-04-29T02:04:12;11.20;99.90
16247;DHT22;8231;50.866;7.944;2023-04-29T02:06:40;11.10;99.90
16247;DHT22;8231;50.866;7.944;2023-04-29T02:09:09;11.20;99.90
16247;DHT22;8231;50.866;7.944;2023-04-29T02:11:44;11.10;99.90
16247;DHT22;8231;50.866;7.944;2023-04-29T02:14:13;11.10;99.90
16247;DHT22;8231;50.866;7.944;2023-04-29T02:16:43;11.10;99.90
16247;DHT22;8231;50.866;7.944;2023-04-29T02:19:13;11.00;99.90
16247;DHT22;8231;50.866;7.944;2023-04-29T02:21:41;11.00;99.90
16247;DHT22;8231;50.866;7.944;2023-04-29T02:24:09;11.00;99.90
16247;DHT22;8231;50.866;7.944;2023-04-29T02:26:38;11.00;99.90
16247;DHT22;8231;50.866;7.944;2023-04-29T02:29:07;11.00;99.90
16247;DHT22;8231;50.866;7.944;2023-04-29T02:31:35;11.00;99.90
16247;DHT22;8231;50.866;7.944;2023-04-29T02:34:04;11.00;99.90
16247;DHT22;8231;50.866;7.944;2023-04-29T02:36:33;11.00;99.90
16247;DHT22;8231;50.866;7.944;2023-04-29T02:39:02;11.00;99.90
16247;DHT22;8231;50.866;7.944;2023-04-29T02:41:30;11.00;99.90
16247;DHT22;8231;50.866;7.944;2023-04-29T02:43:58;10.90;99.90
16247;DHT22;8231;50.866;7.944;2023-04-29T02:46:28;11.10;99.90
16247;DHT22;8231;50.866;7.944;2023-04-29T02:49:17;10.80;99.90
16247;DHT22;8231;50.866;7.944;2023-04-29T02:52:04;10.80;99.90
16247;DHT22;8231;50.866;7.944;2023-04-29T02:54:43;10.80;99.90
16247;DHT22;8231;50.866;7.944;2023-04-29T02:57:11;10.70;99.90
16247;DHT22;8231;50.866;7.944;2023-04-29T02:59:40;10.70;99.90
16247;DHT22;8231;50.866;7.944;2023-04-29T03:02:10;10.70;99.90
16247;DHT22;8231;50.866;7.944;2023-04-29T03:04:39;10.70;99.90
16247;DHT22;8231;50.866;7.944;2023-04-29T03:07:08;11.40;99.90
16247;DHT22;8231;50.866;7.944;2023-04-29T03:09:36;10.70;99.90
16247;DHT22;8231;50.866;7.944;2023-04-29T03:12:04;10.70;99.90
16247;DHT22;8231;50.866;7.944;2023-04-29T03:14:33;10.70;99.90
16247;DHT22;8231;50.866;7.944;2023-04-29T03:17:02;10.60;99.90
16247;DHT22;8231;50.866;7.944;2023-04-29T03:19:32;10.60;99.90
16247;DHT22;8231;50.866;7.944;2023-04-29T03:22:00;10.50;99.90
16247;DHT22;8231;50.866;7.944;2023-04-29T03:24:29;10.60;99.90
16247;DHT22;8231;50.866;7.944;2023-04-29T03:26:58;10.50;99.90
16247;DHT22;8231;50.866;7.944;2023-04-29T03:29:27;11.50;99.90
16247;DHT22;8231;50.866;7.944;2023-04-29T03:31:55;10.50;99.90
16247;DHT22;8231;50.866;7.944;2023-04-29T03:34:24;10.50;99.90
16247;DHT22;8231;50.866;7.944;2023-04-29T03:37:08;10.50;99.90
16247;DHT22;8231;50.866;7.944;2023-04-29T03:39:40;10.50;99.90
16247;DHT22;8231;50.866;7.944;2023-04-29T03:42:08;10.50;99.90
16247;DHT22;8231;50.866;7.944;2023-04-29T03:44:37;10.50;99.90
16247;DHT22;8231;50.866;7.944;2023-04-29T03:47:06;10.40;99.90
16247;DHT22;8231;50.866;7.944;2023-04-29T03:49:36;10.60;99.90
16247;DHT22;8231;50.866;7.944;2023-04-29T03:52:04;10.40;99.90
16247;DHT22;8231;50.866;7.944;2023-04-29T03:54:34;10.30;99.90
16247;DHT22;8231;50.866;7.944;2023-04-29T03:57:02;10.30;99.90
16247;DHT22;8231;50.866;7.944;2023-04-29T03:59:33;10.30;99.90
16247;DHT22;8231;50.866;7.944;2023-04-29T04:02:02;10.20;99.90
16247;DHT22;8231;50.866;7.944;2023-04-29T04:04:31;10.20;99.90
16247;DHT22;8231;50.866;7.944;2023-04-29T04:06:59;10.20;99.90
16247;DHT22;8231;50.866;7.944;2023-04-29T04:09:37;10.30;99.90
16247;DHT22;8231;50.866;7.944;2023-04-29T04:12:06;10.20;99.90
16247;DHT22;8231;50.866;7.944;2023-04-29T04:14:34;10.30;99.90
16247;DHT22;8231;50.866;7.944;2023-04-29T04:17:02;10.30;99.90
16247;DHT22;8231;50.866;7.944;2023-04-29T04:19:31;10.30;99.90
16247;DHT22;8231;50.866;7.944;2023-04-29T04:21:59;10.30;99.90
16247;DHT22;8231;50.866;7.944;2023-04-29T04:24:30;10.30;99.90
16247;DHT22;8231;50.866;7.944;2023-04-29T04:27:00;10.20;99.90
16247;DHT22;8231;50.866;7.944;2023-04-29T04:29:34;10.20;99.90
16247;DHT22;8231;50.866;7.944;2023-04-29T04:32:08;10.20;99.90
16247;DHT22;8231;50.866;7.944;2023-04-29T04:34:38;10.10;99.90
16247;DHT22;8231;50.866;7.944;2023-04-29T04:37:06;10.10;99.90
16247;DHT22;8231;50.866;7.944;2023-04-29T04:39:37;10.10;99.90
16247;DHT22;8231;50.866;7.944;2023-04-29T04:42:09;10.00;99.90
16247;DHT22;8231;50.866;7.944;2023-04-29T04:44:37;10.00;99.90
16247;DHT22;8231;50.866;7.944;2023-04-29T04:47:08;10.10;99.90
16247;DHT22;8231;50.866;7.944;2023-04-29T04:50:00;10.00;99.90
16247;DHT22;8231;50.866;7.944;2023-04-29T04:52:30;10.00;99.90
16247;DHT22;8231;50.866;7.944;2023-04-29T04:55:03;10.10;99.90
16247;DHT22;8231;50.866;7.944;2023-04-29T04:57:36;10.10;99.90
16247;DHT22;8231;50.866;7.944;2023-04-29T05:00:05;10.10;99.90
16247;DHT22;8231;50.866;7.944;2023-04-29T05:02:35;10.20;99.90
16247;DHT22;8231;50.866;7.944;2023-04-29T05:05:04;10.20;99.90
16247;DHT22;8231;50.866;7.944;2023-04-29T05:07:35;10.20;99.90
16247;DHT22;8231;50.866;7.944;2023-04-29T05:10:05;10.30;99.90
16247;DHT22;8231;50.866;7.944;2023-04-29T05:12:42;10.20;99.90
16247;DHT22;8231;50.866;7.944;2023-04-29T05:15:10;10.40;99.90
16247;DHT22;8231;50.866;7.944;2023-04-29T05:17:42;10.30;99.90
16247;DHT22;8231;50.866;7.944;2023-04-29T05:20:11;10.30;99.90
16247;DHT22;8231;50.866;7.944;2023-04-29T05:22:39;10.30;99.90
16247;DHT22;8231;50.866;7.944;2023-04-29T05:25:09;10.30;99.90
16247;DHT22;8231;50.866;7.944;2023-04-29T05:27:38;10.30;99.90
16247;DHT22;8231;50.866;7.944;2023-04-29T05:30:11;10.30;99.90
16247;DHT22;8231;50.866;7.944;2023-04-29T05:32:40;10.30;99.90
16247;DHT22;8231;50.866;7.944;2023-04-29T05:35:12;10.30;99.90
16247;DHT22;8231;50.866;7.944;2023-04-29T05:37:41;10.30;99.90
16247;DHT22;8231;50.866;7.944;2023-04-29T05:40:20;10.40;99.90
16247;DHT22;8231;50.866;7.944;2023-04-29T05:42:50;10.30;99.90
16247;DHT22;8231;50.866;7.944;2023-04-29T05:45:20;10.30;99.90
16247;DHT22;8231;50.866;7.944;2023-04-29T05:47:49;10.30;99.90
16247;DHT22;8231;50.866;7.944;2023-04-29T05:50:17;10.30;99.90
16247;DHT22;8231;50.866;7.944;2023-04-29T05:52:45;10.30;99.90
16247;DHT22;8231;50.866;7.944;2023-04-29T05:55:14;10.20;99.90
16247;DHT22;8231;50.866;7.944;2023-04-29T05:57:44;10.00;99.90
16247;DHT22;8231;50.866;7.944;2023-04-29T06:00:12;10.30;99.90
16247;DHT22;8231;50.866;7.944;2023-04-29T06:02:42;10.30;99.90
16247;DHT22;8231;50.866;7.944;2023-04-29T06:05:25;10.40;99.90
16247;DHT22;8231;50.866;7.944;2023-04-29T06:08:13;10.20;99.90
16247;DHT22;8231;50.866;7.944;2023-04-29T06:11:02;10.20;99.90
16247;DHT22;8231;50.866;7.944;2023-04-29T06:13:31;10.20;99.90
16247;DHT22;8231;50.866;7.944;2023-04-29T06:16:00;10.20;99.90
16247;DHT22;8231;50.866;7.944;2023-04-29T06:18:33;10.20;99.90
16247;DHT22;8231;50.866;7.944;2023-04-29T06:21:01;10.20;99.90
16247;DHT22;8231;50.866;7.944;2023-04-29T06:23:30;10.20;99.90
16247;DHT22;8231;50.866;7.944;2023-04-29T06:26:02;10.20;99.90
16247;DHT22;8231;50.866;7.944;2023-04-29T06:28:31;10.30;99.90
16247;DHT22;8231;50.866;7.944;2023-04-29T06:30:59;10.30;99.90
16247;DHT22;8231;50.866;7.944;2023-04-29T06:33:32;10.30;99.90
16247;DHT22;8231;50.866;7.944;2023-04-29T06:36:01;10.30;99.90
16247;DHT22;8231;50.866;7.944;2023-04-29T06:38:39;10.40;99.90
16247;DHT22;8231;50.866;7.944;2023-04-29T06:41:21;10.50;99.90
16247;DHT22;8231;50.866;7.944;2023-04-29T06:44:04;10.50;99.90
16247;DHT22;8231;50.866;7.944;2023-04-29T06:46:38;10.50;99.90
16247;DHT22;8231;50.866;7.944;2023-04-29T06:49:17;10.50;99.90
16247;DHT22;8231;50.866;7.944;2023-04-29T06:51:48;10.50;99.90
16247;DHT22;8231;50.866;7.944;2023-04-29T06:54:16;10.50;99.90
16247;DHT22;8231;50.866;7.944;2023-04-29T06:56:44;10.60;99.90
16247;DHT22;8231;50.866;7.944;2023-04-29T06:59:16;10.70;99.90
16247;DHT22;8231;50.866;7.944;2023-04-29T07:01:45;10.70;99.90
16247;DHT22;8231;50.866;7.944;2023-04-29T07:04:20;10.70;99.90
16247;DHT22;8231;50.866;7.944;2023-04-29T07:06:48;10.70;99.90
16247;DHT22;8231;50.866;7.944;2023-04-29T07:09:17;10.70;99.90
16247;DHT22;8231;50.866;7.944;2023-04-29T07:11:45;10.70;99.90
16247;DHT22;8231;50.866;7.944;2023-04-29T07:14:13;10.70;99.90
16247;DHT22;8231;50.866;7.944;2023-04-29T07:16:41;10.70;99.90
16247;DHT22;8231;50.866;7.944;2023-04-29T07:19:10;10.70;99.90
16247;DHT22;8231;50.866;7.944;2023-04-29T07:21:39;10.80;99.90
16247;DHT22;8231;50.866;7.944;2023-04-29T07:24:08;10.80;99.90
16247;DHT22;8231;50.866;7.944;2023-04-29T07:26:36;10.80;99.90
16247;DHT22;8231;50.866;7.944;2023-04-29T07:29:06;10.80;99.90
16247;DHT22;8231;50.866;7.944;2023-04-29T07:31:34;10.80;99.90
16247;DHT22;8231;50.866;7.944;2023-04-29T07:34:04;10.80;99.90
16247;DHT22;8231;50.866;7.944;2023-04-29T07:36:32;10.90;99.90
16247;DHT22;8231;50.866;7.944;2023-04-29T07:39:03;11.00;99.90
16247;DHT22;8231;50.866;7.944;2023-04-29T07:41:31;11.00;99.90
16247;DHT22;8231;50.866;7.944;2023-04-29T07:44:03;10.90;99.90
16247;DHT22;8231;50.866;7.944;2023-04-29T07:46:31;10.90;99.90
16247;DHT22;8231;50.866;7.944;2023-04-29T07:49:00;11.00;99.90
16247;DHT22;8231;50.866;7.944;2023-04-29T07:51:28;11.00;99.90
16247;DHT22;8231;50.866;7.944;2023-04-29T07:53:56;11.10;99.90
16247;DHT22;8231;50.866;7.944;2023-04-29T07:56:26;11.20;99.90
16247;DHT22;8231;50.866;7.944;2023-04-29T07:58:54;11.30;99.90
16247;DHT22;8231;50.866;7.944;2023-04-29T08:01:22;11.30;99.90
16247;DHT22;8231;50.866;7.944;2023-04-29T08:03:51;11.40;99.90
16247;DHT22;8231;50.866;7.944;2023-04-29T08:06:22;11.40;99.90
16247;DHT22;8231;50.866;7.944;2023-04-29T08:08:50;11.30;99.90
16247;DHT22;8231;50.866;7.944;2023-04-29T08:11:19;11.30;99.90
16247;DHT22;8231;50.866;7.944;2023-04-29T08:13:51;11.40;99.90
16247;DHT22;8231;50.866;7.944;2023-04-29T08:16:20;11.70;99.90
16247;DHT22;8231;50.866;7.944;2023-04-29T08:18:52;11.80;99.90
16247;DHT22;8231;50.866;7.944;2023-04-29T08:21:20;11.80;99.90
16247;DHT22;8231;50.866;7.944;2023-04-29T08:23:49;11.80;99.90
16247;DHT22;8231;50.866;7.944;2023-04-29T08:26:17;11.80;99.90
16247;DHT22;8231;50.866;7.944;2023-04-29T08:28:45;11.80;99.90
16247;DHT22;8231;50.866;7.944;2023-04-29T08:31:19;11.90;99.90
16247;DHT22;8231;50.866;7.944;2023-04-29T08:33:48;11.70;99.90
16247;DHT22;8231;50.866;7.944;2023-04-29T08:36:16;11.50;99.90
16247;DHT22;8231;50.866;7.944;2023-04-29T08:38:44;11.50;99.90
16247;DHT22;8231;50.866;7.944;2023-04-29T08:41:14;11.30;99.90
16247;DHT22;8231;50.866;7.944;2023-04-29T08:43:43;11.40;99.90
16247;DHT22;8231;50.866;7.944;2023-04-29T08:46:12;11.30;99.90
16247;DHT22;8231;50.866;7.944;2023-04-29T08:48:42;11.30;99.90
16247;DHT22;8231;50.866;7.944;2023-04-29T08:51:11;11.30;99.90
16247;DHT22;8231;50.866;7.944;2023-04-29T08:53:40;11.30;99.90
16247;DHT22;8231;50.866;7.944;2023-04-29T08:56:14;11.40;99.90
16247;DHT22;8231;50.866;7.944;2023-04-29T08:58:43;11.50;99.90
16247;DHT22;8231;50.866;7.944;2023-04-29T09:01:12;11.50;99.90
16247;DHT22;8231;50.866;7.944;2023-04-29T09:03:48;11.50;99.90
16247;DHT22;8231;50.866;7.944;2023-04-29T09:06:18;11.50;99.90
16247;DHT22;8231;50.866;7.944;2023-04-29T09:08:47;11.40;99.90
16247;DHT22;8231;50.866;7.944;2023-04-29T09:11:16;11.40;99.90
16247;DHT22;8231;50.866;7.944;2023-04-29T09:13:47;11.40;99.90
16247;DHT22;8231;50.866;7.944;2023-04-29T09:16:15;11.60;99.90
16247;DHT22;8231;50.866;7.944;2023-04-29T09:18:46;11.70;99.90
16247;DHT22;8231;50.866;7.944;2023-04-29T09:21:17;12.10;99.90
16247;DHT22;8231;50.866;7.944;2023-04-29T09:23:50;11.90;99.90
16247;DHT22;8231;50.866;7.944;2023-04-29T09:26:18;11.80;99.90
16247;DHT22;8231;50.866;7.944;2023-04-29T09:29:05;11.90;99.90
16247;DHT22;8231;50.866;7.944;2023-04-29T09:31:36;11.90;99.90
16247;DHT22;8231;50.866;7.944;2023-04-29T09:34:07;12.00;99.90
16247;DHT22;8231;50.866;7.944;2023-04-29T09:36:44;12.00;99.90
16247;DHT22;8231;50.866;7.944;2023-04-29T09:39:15;11.90;99.90
16247;DHT22;8231;50.866;7.944;2023-04-29T09:41:58;11.90;99.90
16247;DHT22;8231;50.866;7.944;2023-04-29T09:44:30;11.90;99.90
16247;DHT22;8231;50.866;7.944;2023-04-29T09:47:04;12.00;99.90
16247;DHT22;8231;50.866;7.944;2023-04-29T09:49:35;11.90;99.90
16247;DHT22;8231;50.866;7.944;2023-04-29T09:52:07;11.80;99.90
16247;DHT22;8231;50.866;7.944;2023-04-29T09:54:37;11.80;99.90
16247;DHT22;8231;50.866;7.944;2023-04-29T09:57:08;11.80;99.90
16247;DHT22;8231;50.866;7.944;2023-04-29T09:59:37;11.80;99.90
16247;DHT22;8231;50.866;7.944;2023-04-29T10:02:12;11.80;99.90
16247;DHT22;8231;50.866;7.944;2023-04-29T10:04:44;12.00;99.90
16247;DHT22;8231;50.866;7.944;2023-04-29T10:07:16;12.20;99.90
16247;DHT22;8231;50.866;7.944;2023-04-29T10:09:46;12.50;99.90
16247;DHT22;8231;50.866;7.944;2023-04-29T10:12:16;12.60;99.90
16247;DHT22;8231;50.866;7.944;2023-04-29T10:14:57;12.60;99.90
16247;DHT22;8231;50.866;7.944;2023-04-29T10:17:35;12.60;99.90
16247;DHT22;8231;50.866;7.944;2023-04-29T10:20:08;12.50;99.90
16247;DHT22;8231;50.866;7.944;2023-04-29T10:22:44;12.40;99.90
16247;DHT22;8231;50.866;7.944;2023-04-29T10:25:14;12.30;99.90
16247;DHT22;8231;50.866;7.944;2023-04-29T10:27:43;12.20;99.90
16247;DHT22;8231;50.866;7.944;2023-04-29T10:30:13;12.30;99.90
16247;DHT22;8231;50.866;7.944;2023-04-29T10:32:42;12.40;99.90
16247;DHT22;8231;50.866;7.944;2023-04-29T10:35:20;12.60;99.90
16247;DHT22;8231;50.866;7.944;2023-04-29T10:37:52;12.40;99.90
16247;DHT22;8231;50.866;7.944;2023-04-29T10:40:26;12.40;99.90
16247;DHT22;8231;50.866;7.944;2023-04-29T10:42:57;12.30;99.90
16247;DHT22;8231;50.866;7.944;2023-04-29T10:45:26;12.20;99.90
16247;DHT22;8231;50.866;7.944;2023-04-29T10:48:09;12.20;99.90
16247;DHT22;8231;50.866;7.944;2023-04-29T10:51:01;12.20;99.90
16247;DHT22;8231;50.866;7.944;2023-04-29T10:53:30;12.30;99.90
16247;DHT22;8231;50.866;7.944;2023-04-29T10:56:03;12.40;99.90
16247;DHT22;8231;50.866;7.944;2023-04-29T10:58:40;12.50;99.90
16247;DHT22;8231;50.866;7.944;2023-04-29T11:01:13;12.60;99.90
16247;DHT22;8231;50.866;7.944;2023-04-29T11:03:47;12.60;99.90
16247;DHT22;8231;50.866;7.944;2023-04-29T11:06:18;12.60;99.90
16247;DHT22;8231;50.866;7.944;2023-04-29T11:08:46;12.60;99.90
16247;DHT22;8231;50.866;7.944;2023-04-29T11:11:14;12.50;99.90
16247;DHT22;8231;50.866;7.944;2023-04-29T11:13:45;12.60;99.90
16247;DHT22;8231;50.866;7.944;2023-04-29T11:16:14;12.70;99.90
16247;DHT22;8231;50.866;7.944;2023-04-29T11:19:07;12.70;99.90
16247;DHT22;8231;50.866;7.944;2023-04-29T11:21:37;12.70;99.90
16247;DHT22;8231;50.866;7.944;2023-04-29T11:24:05;12.60;99.90
16247;DHT22;8231;50.866;7.944;2023-04-29T11:26:34;12.60;99.90
16247;DHT22;8231;50.866;7.944;2023-04-29T11:29:04;12.60;99.90
16247;DHT22;8231;50.866;7.944;2023-04-29T11:31:34;12.60;99.90
16247;DHT22;8231;50.866;7.944;2023-04-29T11:34:03;12.60;99.90
16247;DHT22;8231;50.866;7.944;2023-04-29T11:36:33;12.50;99.90
16247;DHT22;8231;50.866;7.944;2023-04-29T11:39:03;12.50;99.90
16247;DHT22;8231;50.866;7.944;2023-04-29T11:41:32;12.50;99.90
16247;DHT22;8231;50.866;7.944;2023-04-29T11:44:01;12.40;99.90
16247;DHT22;8231;50.866;7.944;2023-04-29T11:46:33;12.30;99.90
16247;DHT22;8231;50.866;7.944;2023-04-29T11:49:01;12.20;99.90
16247;DHT22;8231;50.866;7.944;2023-04-29T11:51:30;12.20;99.90
16247;DHT22;8231;50.866;7.944;2023-04-29T11:53:58;12.20;99.90
16247;DHT22;8231;50.866;7.944;2023-04-29T11:56:28;12.10;99.90
16247;DHT22;8231;50.866;7.944;2023-04-29T11:58:57;12.20;99.90
16247;DHT22;8231;50.866;7.944;2023-04-29T12:01:27;12.20;99.90
16247;DHT22;8231;50.866;7.944;2023-04-29T12:03:56;12.10;99.90
16247;DHT22;8231;50.866;7.944;2023-04-29T12:06:27;12.00;99.90
16247;DHT22;8231;50.866;7.944;2023-04-29T12:08:58;12.00;99.90
16247;DHT22;8231;50.866;7.944;2023-04-29T12:11:29;11.90;99.90
16247;DHT22;8231;50.866;7.944;2023-04-29T12:13:57;11.90;99.90
16247;DHT22;8231;50.866;7.944;2023-04-29T12:16:29;11.90;99.90
16247;DHT22;8231;50.866;7.944;2023-04-29T12:18:58;11.90;99.90
16247;DHT22;8231;50.866;7.944;2023-04-29T12:21:26;12.00;99.90
16247;DHT22;8231;50.866;7.944;2023-04-29T12:23:58;12.10;99.90
16247;DHT22;8231;50.866;7.944;2023-04-29T12:26:29;12.10;99.90
16247;DHT22;8231;50.866;7.944;2023-04-29T12:28:58;12.20;99.90
16247;DHT22;8231;50.866;7.944;2023-04-29T12:31:32;12.30;99.90
16247;DHT22;8231;50.866;7.944;2023-04-29T12:34:02;12.50;99.90
16247;DHT22;8231;50.866;7.944;2023-04-29T12:36:35;12.80;99.90
16247;DHT22;8231;50.866;7.944;2023-04-29T12:39:05;12.70;99.90
16247;DHT22;8231;50.866;7.944;2023-04-29T12:41:39;12.70;99.90
16247;DHT22;8231;50.866;7.944;2023-04-29T12:44:10;12.70;99.90
16247;DHT22;8231;50.866;7.944;2023-04-29T12:46:40;12.70;99.90
16247;DHT22;8231;50.866;7.944;2023-04-29T12:49:09;12.60;99.90
16247;DHT22;8231;50.866;7.944;2023-04-29T12:51:38;12.50;99.90
16247;DHT22;8231;50.866;7.944;2023-04-29T12:54:06;12.50;99.90
16247;DHT22;8231;50.866;7.944;2023-04-29T12:56:36;12.30;99.90
16247;DHT22;8231;50.866;7.944;2023-04-29T12:59:06;12.50;99.90
16247;DHT22;8231;50.866;7.944;2023-04-29T13:01:36;12.40;99.90
16247;DHT22;8231;50.866;7.944;2023-04-29T13:04:04;12.60;99.90
16247;DHT22;8231;50.866;7.944;2023-04-29T13:06:35;12.70;99.90
16247;DHT22;8231;50.866;7.944;2023-04-29T13:09:08;12.90;99.90
16247;DHT22;8231;50.866;7.944;2023-04-29T13:11:44;13.10;99.90
16247;DHT22;8231;50.866;7.944;2023-04-29T13:14:15;13.10;99.90
16247;DHT22;8231;50.866;7.944;2023-04-29T13:16:44;13.20;99.90
16247;DHT22;8231;50.866;7.944;2023-04-29T13:19:13;13.60;99.90
16247;DHT22;8231;50.866;7.944;2023-04-29T13:22:01;13.20;99.90
16247;DHT22;8231;50.866;7.944;2023-04-29T13:24:29;13.20;99.90
16247;DHT22;8231;50.866;7.944;2023-04-29T13:26:59;13.30;99.90
16247;DHT22;8231;50.866;7.944;2023-04-29T13:29:30;13.80;99.90
16247;DHT22;8231;50.866;7.944;2023-04-29T13:31:58;13.60;99.90
16247;DHT22;8231;50.866;7.944;2023-04-29T13:34:27;13.70;99.90
16247;DHT22;8231;50.866;7.944;2023-04-29T13:36:55;13.90;99.90
16247;DHT22;8231;50.866;7.944;2023-04-29T13:39:23;14.10;99.90
16247;DHT22;8231;50.866;7.944;2023-04-29T13:41:51;14.10;99.90
16247;DHT22;8231;50.866;7.944;2023-04-29T13:44:25;14.20;99.90
16247;DHT22;8231;50.866;7.944;2023-04-29T13:47:14;14.20;99.90
16247;DHT22;8231;50.866;7.944;2023-04-29T13:49:50;13.90;99.90
16247;DHT22;8231;50.866;7.944;2023-04-29T13:52:38;13.60;99.90
16247;DHT22;8231;50.866;7.944;2023-04-29T13:55:10;13.50;99.90
16247;DHT22;8231;50.866;7.944;2023-04-29T13:57:41;13.30;99.90
16247;DHT22;8231;50.866;7.944;2023-04-29T14:00:13;13.20;99.90
16247;DHT22;8231;50.866;7.944;2023-04-29T14:03:03;13.10;99.90
16247;DHT22;8231;50.866;7.944;2023-04-29T14:05:33;13.10;99.90
16247;DHT22;8231;50.866;7.944;2023-04-29T14:08:02;13.30;99.90
16247;DHT22;8231;50.866;7.944;2023-04-29T14:10:30;13.20;99.90
16247;DHT22;8231;50.866;7.944;2023-04-29T14:12:58;13.20;99.90
16247;DHT22;8231;50.866;7.944;2023-04-29T14:15:27;13.20;99.90
16247;DHT22;8231;50.866;7.944;2023-04-29T14:17:55;13.30;99.90
16247;DHT22;8231;50.866;7.944;2023-04-29T14:20:25;13.20;99.90
16247;DHT22;8231;50.866;7.944;2023-04-29T14:22:53;13.30;99.90
16247;DHT22;8231;50.866;7.944;2023-04-29T14:25:21;13.40;99.90
16247;DHT22;8231;50.866;7.944;2023-04-29T14:27:49;13.40;99.90
16247;DHT22;8231;50.866;7.944;2023-04-29T14:30:17;13.40;99.90
16247;DHT22;8231;50.866;7.944;2023-04-29T14:32:46;13.40;99.90
16247;DHT22;8231;50.866;7.944;2023-04-29T14:35:14;13.60;99.90
16247;DHT22;8231;50.866;7.944;2023-04-29T14:37:44;13.60;99.90
16247;DHT22;8231;50.866;7.944;2023-04-29T14:40:12;13.70;99.90
16247;DHT22;8231;50.866;7.944;2023-04-29T14:42:40;13.60;99.90
16247;DHT22;8231;50.866;7.944;2023-04-29T14:45:09;13.60;99.90
16247;DHT22;8231;50.866;7.944;2023-04-29T14:47:38;13.60;99.90
16247;DHT22;8231;50.866;7.944;2023-04-29T14:50:08;13.60;99.90
16247;DHT22;8231;50.866;7.944;2023-04-29T14:52:36;13.60;99.90
16247;DHT22;8231;50.866;7.944;2023-04-29T14:55:06;13.70;99.90
16247;DHT22;8231;50.866;7.944;2023-04-29T14:57:36;13.80;99.90
16247;DHT22;8231;50.866;7.944;2023-04-29T15:00:05;13.90;99.90
16247;DHT22;8231;50.866;7.944;2023-04-29T15:02:34;13.90;99.90
16247;DHT22;8231;50.866;7.944;2023-04-29T15:05:03;13.90;99.90
16247;DHT22;8231;50.866;7.944;2023-04-29T15:07:31;13.80;99.90
16247;DHT22;8231;50.866;7.944;2023-04-29T15:09:59;13.80;99.90
16247;DHT22;8231;50.866;7.944;2023-04-29T15:12:29;13.80;99.90
16247;DHT22;8231;50.866;7.944;2023-04-29T15:14:57;13.80;99.90
16247;DHT22;8231;50.866;7.944;2023-04-29T15:17:25;13.80;99.90
16247;DHT22;8231;50.866;7.944;2023-04-29T15:19:54;13.80;99.90
16247;DHT22;8231;50.866;7.944;2023-04-29T15:22:22;13.60;99.90
16247;DHT22;8231;50.866;7.944;2023-04-29T15:24:50;13.60;99.90
16247;DHT22;8231;50.866;7.944;2023-04-29T15:27:19;14.00;99.90
16247;DHT22;8231;50.866;7.944;2023-04-29T15:29:48;13.70;99.90
16247;DHT22;8231;50.866;7.944;2023-04-29T15:32:20;13.70;99.90
16247;DHT22;8231;50.866;7.944;2023-04-29T15:34:48;13.70;99.90
16247;DHT22;8231;50.866;7.944;2023-04-29T15:37:16;13.80;99.90
16247;DHT22;8231;50.866;7.944;2023-04-29T15:39:45;13.70;99.90
16247;DHT22;8231;50.866;7.944;2023-04-29T15:42:13;13.70;99.90
16247;DHT22;8231;50.866;7.944;2023-04-29T15:44:41;13.70;99.90
16247;DHT22;8231;50.866;7.944;2023-04-29T15:47:10;13.70;99.90
16247;DHT22;8231;50.866;7.944;2023-04-29T15:49:40;13.80;99.90
16247;DHT22;8231;50.866;7.944;2023-04-29T15:52:09;13.80;99.90
16247;DHT22;8231;50.866;7.944;2023-04-29T15:54:37;13.70;99.90
16247;DHT22;8231;50.866;7.944;2023-04-29T15:57:06;13.60;99.90
16247;DHT22;8231;50.866;7.944;2023-04-29T15:59:34;13.50;99.90
16247;DHT22;8231;50.866;7.944;2023-04-29T16:02:02;13.50;99.90
16247;DHT22;8231;50.866;7.944;2023-04-29T16:04:37;13.50;99.90
16247;DHT22;8231;50.866;7.944;2023-04-29T16:07:05;13.50;99.90
16247;DHT22;8231;50.866;7.944;2023-04-29T16:09:34;13.60;99.90